Weather at Skiatook Municipal Airport

Public forecast

Using degrees Fahrenheit for public forecast. Weather courtesy of forecast.io.

Closest aviation weather report (METAR) to Skiatook Municipal Airport

Closest report is Tulsa International Airport, 11.1 nm (20.6 km) SSE. Retrieved 2020/10/21 11:53 UTC (48 minutes ago):

KTUL 211153Z 34005KT 10SM OVC007 13/13 A3007 RMK AO2 SLP180 T01330128 10139 20128 53007

Closest aviation forecast (TAF) to Skiatook Municipal Airport

Closest forecast is Tulsa International Airport, 11.1 nm (20.6 km) SSE. Retrieved 2020/10/21 12:22 UTC (19 minutes ago):

TAF KTUL 211120Z 2112/2212 03004KT P6SM OVC007 FM211500 13007KT P6SM BKN020 FM211900 18011KT P6SM SCT035 FM220400 16008KT P6SM FEW045 WS020/18035KT